Terminal Aerodrome Forecast
Issued by NWS Paducah, KY

Home | Current Version | Previous Version | Text Only | Print | Product List | Glossary On
Versions: 1 2 3 4 5 6 7 8 9 10 11 12 13 14 15 16 17 18 19 20
000
FTUS43 KPAH 182337
TAFEVV
TAF
KEVV 182337Z 1900/1924 13005KT P6SM VCSH SCT050 BKN120
      TEMPO 1903/1905 P6SM -TSRA BKN035CB
     FM190900 00000KT 5SM BR SCT045 BKN120
     FM191400 19004KT P6SM SCT030=

USA.gov is the U.S. government's official web portal to all federal, state and local government web resources and services.